createdAt,value
2022-08-03T00:03:46.849Z,27.76
2022-08-03T00:08:50.343Z,27.63
2022-08-03T00:13:54.387Z,27.67
2022-08-03T00:19:00.868Z,27.67
2022-08-03T00:24:04.975Z,27.60
2022-08-03T00:29:08.483Z,27.46
2022-08-03T00:34:13.364Z,27.40
2022-08-03T00:39:17.203Z,27.28
2022-08-03T00:44:20.679Z,27.31
2022-08-03T00:49:25.882Z,27.28
2022-08-03T00:54:29.595Z,27.12
2022-08-03T00:59:33.210Z,27.21
2022-08-03T01:04:38.008Z,27.18
2022-08-03T01:09:48.740Z,27.15
2022-08-03T01:14:56.711Z,27.03
2022-08-03T01:20:04.056Z,27.07
2022-08-03T01:25:13.668Z,27.07
2022-08-03T01:30:18.636Z,27.03
2022-08-03T01:35:38.854Z,27.02
2022-08-03T01:40:44.426Z,26.97
2022-08-03T01:45:50.073Z,26.98
2022-08-03T01:50:55.966Z,27.01
2022-08-03T01:56:00.144Z,26.95
2022-08-03T02:01:06.396Z,26.98
2022-08-03T02:07:00.260Z,26.93
2022-08-03T02:11:36.151Z,26.94
2022-08-03T02:16:41.062Z,26.84
2022-08-03T02:21:56.448Z,26.77
2022-08-03T02:27:09.304Z,26.68
2022-08-03T02:32:19.259Z,26.52
2022-08-03T02:37:27.827Z,26.53
2022-08-03T02:42:33.632Z,26.41
2022-08-03T02:47:53.455Z,26.60
2022-08-03T02:52:58.891Z,26.57
2022-08-03T02:58:04.107Z,26.37
2022-08-03T03:03:09.147Z,26.43
2022-08-03T03:08:18.075Z,26.45
2022-08-03T03:13:23.088Z,26.31
2022-08-03T03:18:28.966Z,26.28
2022-08-03T03:23:34.095Z,26.10
2022-08-03T03:28:38.072Z,26.11
2022-08-03T03:33:42.960Z,26.14
2022-08-03T03:38:46.568Z,26.09
2022-08-03T03:43:50.625Z,26.10
2022-08-03T03:48:56.401Z,25.99
2022-08-03T03:54:01.315Z,26.03
2022-08-03T03:59:04.775Z,26.01
2022-08-03T04:04:23.485Z,25.96
2022-08-03T04:09:44.337Z,25.95
2022-08-03T04:14:48.106Z,26.00
2022-08-03T04:19:54.989Z,26.03
2022-08-03T04:25:08.852Z,25.95
2022-08-03T04:30:13.186Z,26.04
2022-08-03T04:35:18.319Z,26.05
2022-08-03T04:40:24.233Z,26.18
2022-08-03T04:45:33.987Z,26.35
2022-08-03T04:50:40.076Z,26.44
2022-08-03T04:55:43.524Z,26.49
2022-08-03T05:00:51.004Z,26.67
2022-08-03T05:06:09.465Z,26.67
2022-08-03T05:11:14.892Z,26.87
2022-08-03T05:16:18.437Z,27.03
2022-08-03T05:21:23.258Z,27.19
2022-08-03T05:26:26.747Z,27.32
2022-08-03T05:31:30.408Z,27.45
2022-08-03T05:36:35.229Z,27.69
2022-08-03T05:41:38.707Z,27.77
2022-08-03T05:46:42.160Z,28.04
2022-08-03T05:51:47.106Z,28.24
2022-08-03T05:57:03.283Z,28.46
2022-08-03T06:02:06.819Z,28.65
2022-08-03T06:07:11.734Z,28.74
2022-08-03T06:12:15.634Z,28.85
2022-08-03T06:17:19.297Z,29.06
2022-08-03T06:22:24.178Z,29.21
2022-08-03T06:27:37.095Z,29.41
2022-08-03T06:32:41.979Z,29.69
2022-08-03T06:37:57.146Z,29.62
2022-08-03T06:43:01.976Z,29.72
2022-08-03T06:48:08.926Z,29.90
2022-08-03T06:53:19.922Z,30.54
2022-08-03T06:58:25.019Z,30.83
2022-08-03T07:03:28.782Z,30.88
2022-08-03T07:08:34.538Z,31.06
2022-08-03T07:13:38.159Z,31.30
2022-08-03T07:18:41.814Z,31.51
2022-08-03T07:23:46.630Z,31.98
2022-08-03T07:28:50.085Z,32.01
2022-08-03T07:33:53.678Z,32.10
2022-08-03T07:38:59.043Z,32.25
2022-08-03T07:44:02.478Z,32.30
2022-08-03T07:49:06.218Z,32.71
2022-08-03T07:54:11.136Z,32.91
2022-08-03T07:59:14.599Z,33.38
2022-08-03T08:04:18.012Z,33.49
2022-08-03T08:09:23.410Z,33.86
2022-08-03T08:14:27.199Z,33.62
2022-08-03T08:19:30.675Z,34.19
2022-08-03T08:24:40.144Z,34.25
2022-08-03T08:29:47.775Z,34.32
2022-08-03T08:34:57.811Z,34.64
2022-08-03T08:40:02.861Z,35.10
2022-08-03T08:45:08.687Z,35.11
2022-08-03T08:50:21.622Z,35.44
2022-08-03T08:55:58.840Z,35.60
2022-08-03T09:00:56.795Z,35.79
2022-08-03T09:06:02.084Z,35.89
2022-08-03T09:11:07.504Z,35.82
2022-08-03T09:16:13.750Z,36.52
2022-08-03T09:21:36.258Z,36.12
2022-08-03T09:26:41.272Z,36.50
2022-08-03T09:31:46.717Z,36.66
2022-08-03T09:36:53.898Z,37.06
2022-08-03T09:42:09.115Z,36.66
2022-08-03T09:47:14.152Z,37.36
2022-08-03T09:52:31.835Z,37.58
2022-08-03T09:57:40.767Z,37.39
2022-08-03T10:02:50.473Z,37.88
2022-08-03T10:07:53.955Z,38.15
2022-08-03T10:12:59.161Z,38.21
2022-08-03T10:18:02.822Z,38.03
2022-08-03T10:23:06.561Z,38.75
2022-08-03T10:28:14.925Z,38.78
2022-08-03T10:33:51.416Z,38.79
2022-08-03T10:38:46.735Z,38.73
2022-08-03T10:43:54.558Z,38.43
2022-08-03T10:48:58.569Z,39.45
2022-08-03T10:54:02.299Z,39.47
2022-08-03T10:59:08.824Z,38.49
2022-08-03T11:04:18.034Z,39.78
2022-08-03T11:09:21.491Z,40.15
2022-08-03T11:14:26.329Z,39.83
2022-08-03T11:19:56.575Z,40.26
2022-08-03T11:25:02.070Z,40.68
2022-08-03T11:30:08.447Z,40.92
2022-08-03T11:35:13.011Z,41.02
2022-08-03T11:40:34.417Z,40.83
2022-08-03T11:45:39.309Z,40.98
2022-08-03T11:50:45.177Z,40.45
2022-08-03T11:55:49.893Z,40.36
2022-08-03T12:00:58.112Z,41.38
2022-08-03T12:06:02.377Z,39.08
2022-08-03T12:11:10.254Z,41.59
2022-08-03T12:16:20.711Z,42.34
2022-08-03T12:21:25.057Z,42.85
2022-08-03T12:26:29.042Z,42.83
2022-08-03T12:31:33.878Z,42.72
2022-08-03T12:36:39.082Z,41.86
2022-08-03T12:41:42.539Z,42.47
2022-08-03T12:46:48.181Z,42.60
2022-08-03T12:51:58.007Z,41.03
2022-08-03T12:57:02.386Z,42.55
2022-08-03T13:02:09.364Z,42.67
2022-08-03T13:07:14.689Z,42.70
2022-08-03T13:12:20.963Z,42.65
2022-08-03T13:17:26.696Z,41.65
2022-08-03T13:22:30.252Z,41.02
2022-08-03T13:28:04.079Z,42.15
2022-08-03T13:33:00.493Z,40.67
2022-08-03T13:38:04.036Z,41.12
2022-08-03T13:43:07.894Z,41.73
2022-08-03T13:48:12.899Z,40.91
2022-08-03T13:53:16.335Z,41.94
2022-08-03T13:58:19.972Z,41.11
2022-08-03T14:03:24.840Z,42.13
2022-08-03T14:08:28.268Z,42.11
2022-08-03T14:13:31.697Z,41.88
2022-08-03T14:18:36.647Z,42.19
2022-08-03T14:23:44.876Z,42.73
2022-08-03T14:28:48.408Z,41.90
2022-08-03T14:33:53.219Z,43.22
2022-08-03T14:39:01.076Z,41.83
2022-08-03T14:44:05.298Z,42.28
2022-08-03T14:50:38.587Z,42.66
2022-08-03T14:54:33.730Z,43.16
2022-08-03T14:59:55.495Z,41.93
2022-08-03T15:05:02.124Z,41.30
2022-08-03T15:10:06.458Z,41.71
2022-08-03T15:15:10.645Z,41.60
2022-08-03T15:20:24.211Z,41.89
2022-08-03T15:26:28.282Z,41.54
2022-08-03T15:30:56.155Z,41.01
2022-08-03T15:36:01.025Z,40.81
2022-08-03T15:41:04.563Z,41.61
2022-08-03T15:51:33.047Z,42.51
2022-08-03T15:56:36.614Z,40.43
2022-08-03T16:01:40.179Z,42.10
2022-08-03T16:06:45.319Z,40.46
2022-08-03T16:11:48.727Z,40.68
2022-08-03T16:16:53.339Z,41.08
2022-08-03T16:21:58.274Z,40.77
2022-08-03T16:27:01.751Z,40.56
2022-08-03T16:32:09.615Z,40.86
2022-08-03T16:37:37.107Z,40.72
2022-08-03T16:42:38.191Z,40.76
2022-08-03T16:47:41.579Z,39.79
2022-08-03T16:52:47.268Z,40.25
2022-08-03T16:57:59.003Z,39.57
2022-08-03T17:03:18.954Z,40.22
2022-08-03T17:08:26.692Z,40.70
2022-08-03T17:13:39.895Z,40.37
2022-08-03T17:18:48.559Z,40.15
2022-08-03T17:23:56.969Z,39.67
2022-08-03T17:29:11.472Z,39.17
2022-08-03T17:34:17.350Z,38.88
2022-08-03T17:39:55.815Z,39.50
2022-08-03T17:44:53.035Z,39.68
2022-08-03T17:49:56.897Z,39.09
2022-08-03T17:55:55.682Z,38.32
2022-08-03T18:00:52.133Z,38.51
2022-08-03T18:06:12.003Z,38.53
2022-08-03T18:11:21.594Z,38.21
2022-08-03T18:16:29.099Z,38.80
2022-08-03T18:22:03.419Z,38.73
2022-08-03T18:27:02.267Z,37.50
2022-08-03T18:32:12.952Z,38.35
2022-08-03T18:37:21.733Z,37.11
2022-08-03T18:42:32.203Z,37.07
2022-08-03T18:47:54.039Z,37.55
2022-08-03T18:53:15.499Z,36.84
2022-08-03T18:58:27.051Z,37.23
2022-08-03T19:03:41.592Z,36.93
2022-08-03T19:08:49.509Z,36.96
2022-08-03T19:13:57.375Z,36.51
2022-08-03T19:19:01.941Z,36.41
2022-08-03T19:24:09.899Z,36.24
2022-08-03T19:29:16.372Z,35.84
2022-08-03T19:34:20.434Z,35.70
2022-08-03T19:39:27.805Z,35.46
2022-08-03T19:44:35.322Z,35.28
2022-08-03T19:50:06.025Z,35.05
2022-08-03T19:55:09.299Z,34.76
2022-08-03T20:00:19.858Z,34.37
2022-08-03T20:05:23.857Z,34.15
2022-08-03T20:10:30.505Z,33.89
2022-08-03T20:15:41.416Z,33.74
2022-08-03T20:20:47.357Z,33.65
2022-08-03T20:25:58.673Z,33.51
2022-08-03T20:31:03.786Z,33.36
2022-08-03T20:36:10.281Z,33.28
2022-08-03T20:41:14.799Z,33.14
2022-08-03T20:46:29.447Z,33.02
2022-08-03T20:51:52.663Z,32.76
2022-08-03T20:56:57.766Z,32.58
2022-08-03T21:02:03.022Z,32.20
2022-08-03T21:07:16.327Z,32.15
2022-08-03T21:12:28.863Z,32.02
2022-08-03T21:17:40.799Z,31.78
2022-08-03T21:22:47.358Z,31.80
2022-08-03T21:27:52.558Z,31.79
2022-08-03T21:32:59.017Z,31.71
2022-08-03T21:38:21.075Z,31.49
2022-08-03T21:43:33.910Z,31.43
2022-08-03T21:48:39.713Z,31.38
2022-08-03T21:54:02.770Z,31.26
2022-08-03T21:59:08.972Z,31.17
2022-08-03T22:04:55.354Z,31.01
2022-08-03T22:09:40.846Z,30.95
2022-08-03T22:15:01.400Z,30.86
2022-08-03T22:20:11.015Z,30.67
2022-08-03T22:25:15.837Z,30.51
2022-08-03T22:30:20.520Z,30.40
2022-08-03T22:35:26.477Z,30.42
2022-08-03T22:40:30.126Z,30.27
2022-08-03T22:46:07.332Z,30.17
2022-08-03T22:50:58.830Z,30.17
2022-08-03T22:56:02.403Z,29.95
2022-08-03T23:01:09.371Z,29.87
2022-08-03T23:06:15.507Z,29.90
2022-08-03T23:11:19.574Z,29.87
2022-08-03T23:16:28.633Z,29.79
2022-08-03T23:21:53.566Z,29.58
2022-08-03T23:26:58.973Z,29.49
2022-08-03T23:32:02.830Z,29.44
2022-08-03T23:37:07.756Z,29.40
2022-08-03T23:42:12.270Z,29.40
2022-08-03T23:47:15.851Z,29.36
2022-08-03T23:52:30.284Z,29.13
2022-08-03T23:57:38.530Z,29.22
